createdAt,value
2022-08-16T00:02:30.775Z,23.90
2022-08-16T00:04:59.612Z,23.88
2022-08-16T00:07:28.996Z,23.80
2022-08-16T00:09:56.559Z,23.80
2022-08-16T00:12:23.959Z,23.86
2022-08-16T00:14:50.714Z,23.70
2022-08-16T00:17:23.206Z,23.68
2022-08-16T00:19:53.358Z,23.83
2022-08-16T00:22:20.988Z,23.85
2022-08-16T00:24:54.357Z,23.80
2022-08-16T00:27:21.687Z,23.85
2022-08-16T00:29:48.299Z,23.86
2022-08-16T00:32:28.151Z,23.81
2022-08-16T00:35:00.584Z,23.58
2022-08-16T00:37:56.244Z,23.79
2022-08-16T00:40:34.399Z,23.75
2022-08-16T00:43:19.376Z,23.80
2022-08-16T00:46:34.575Z,23.69
2022-08-16T00:48:57.283Z,23.47
2022-08-16T00:51:25.927Z,23.54
2022-08-16T00:54:00.119Z,23.65
2022-08-16T00:56:58.279Z,23.63
2022-08-16T00:59:20.918Z,23.61
2022-08-16T01:01:51.489Z,23.55
2022-08-16T01:04:29.410Z,23.61
2022-08-16T01:07:01.454Z,23.63
2022-08-16T01:09:33.256Z,23.50
2022-08-16T01:12:03.560Z,23.51
2022-08-16T01:14:35.300Z,23.46
2022-08-16T01:17:03.767Z,23.46
2022-08-16T01:19:46.173Z,23.33
2022-08-16T01:22:47.377Z,23.46
2022-08-16T01:25:21.683Z,23.31
2022-08-16T01:27:52.375Z,23.34
2022-08-16T01:30:26.431Z,23.37
2022-08-16T01:33:01.994Z,23.42
2022-08-16T01:35:36.146Z,23.34
2022-08-16T01:38:25.793Z,23.34
2022-08-16T01:40:59.463Z,23.24
2022-08-16T01:43:29.606Z,23.17
2022-08-16T01:46:00.333Z,23.26
2022-08-16T01:48:48.360Z,23.31
2022-08-16T01:51:18.648Z,23.22
2022-08-16T01:53:55.378Z,23.19
2022-08-16T01:56:24.831Z,23.21
2022-08-16T01:58:54.620Z,23.20
2022-08-16T02:01:21.671Z,23.18
2022-08-16T02:03:50.574Z,23.19
2022-08-16T02:06:26.082Z,23.11
2022-08-16T02:09:01.750Z,23.18
2022-08-16T02:11:47.862Z,23.16
2022-08-16T02:14:18.318Z,23.22
2022-08-16T02:16:45.542Z,23.15
2022-08-16T02:19:16.437Z,23.08
2022-08-16T02:22:09.268Z,23.16
2022-08-16T02:24:40.947Z,23.05
2022-08-16T02:27:08.705Z,23.02
2022-08-16T02:29:35.428Z,23.07
2022-08-16T02:32:04.044Z,23.07
2022-08-16T02:34:50.293Z,23.13
2022-08-16T02:37:20.928Z,23.19
2022-08-16T02:39:47.798Z,23.23
2022-08-16T02:42:21.366Z,23.23
2022-08-16T02:44:48.973Z,23.22
2022-08-16T02:47:25.271Z,23.18
2022-08-16T02:49:59.188Z,23.18
2022-08-16T02:52:39.595Z,22.98
2022-08-16T02:55:11.794Z,23.13
2022-08-16T02:57:54.366Z,23.14
2022-08-16T03:00:34.504Z,23.13
2022-08-16T03:03:01.904Z,23.15
2022-08-16T03:05:31.653Z,23.05
2022-08-16T03:07:58.590Z,23.07
2022-08-16T03:10:31.870Z,23.08
2022-08-16T03:13:00.530Z,23.02
2022-08-16T03:15:28.331Z,22.94
2022-08-16T03:17:55.631Z,22.98
2022-08-16T03:20:31.821Z,22.90
2022-08-16T03:22:59.339Z,22.92
2022-08-16T03:25:25.933Z,22.91
2022-08-16T03:28:08.618Z,22.87
2022-08-16T03:30:36.416Z,22.89
2022-08-16T03:33:04.115Z,22.93
2022-08-16T03:35:34.351Z,22.84
2022-08-16T03:38:33.133Z,22.75
2022-08-16T03:40:53.382Z,22.72
2022-08-16T03:43:21.603Z,22.81
2022-08-16T03:45:52.853Z,22.85
2022-08-16T03:48:21.196Z,22.82
2022-08-16T03:51:07.954Z,22.78
2022-08-16T03:53:37.889Z,22.74
2022-08-16T03:56:07.354Z,22.65
2022-08-16T03:58:35.214Z,22.70
2022-08-16T04:01:05.204Z,22.60
2022-08-16T04:03:32.694Z,22.63
2022-08-16T04:05:59.564Z,22.51
2022-08-16T04:08:31.172Z,22.59
2022-08-16T04:10:58.278Z,22.55
2022-08-16T04:14:01.461Z,22.64
2022-08-16T04:16:26.537Z,22.64
2022-08-16T04:19:01.938Z,22.51
2022-08-16T04:21:31.084Z,22.59
2022-08-16T04:23:59.186Z,22.58
2022-08-16T04:26:25.771Z,22.60
2022-08-16T04:29:16.334Z,22.28
2022-08-16T04:31:44.790Z,22.46
2022-08-16T04:34:12.376Z,22.53
2022-08-16T04:36:39.543Z,22.55
2022-08-16T04:39:06.163Z,22.63
2022-08-16T04:41:37.650Z,22.64
2022-08-16T04:44:33.065Z,22.59
2022-08-16T04:47:01.078Z,22.59
2022-08-16T04:49:43.839Z,22.72
2022-08-16T04:52:33.364Z,22.69
2022-08-16T04:54:59.444Z,22.71
2022-08-16T04:57:30.084Z,22.72
2022-08-16T04:59:56.846Z,22.69
2022-08-16T05:02:41.686Z,22.71
2022-08-16T05:05:17.668Z,22.83
2022-08-16T05:07:57.837Z,22.82
2022-08-16T05:10:26.380Z,22.84
2022-08-16T05:12:52.883Z,22.90
2022-08-16T05:15:19.371Z,22.86
2022-08-16T05:17:47.247Z,22.85
2022-08-16T05:20:38.964Z,22.84
2022-08-16T05:23:09.850Z,22.98
2022-08-16T05:28:12.446Z,23.06
2022-08-16T05:30:39.865Z,23.02
2022-08-16T05:33:16.875Z,23.15
2022-08-16T05:35:55.127Z,23.11
2022-08-16T05:38:32.354Z,23.13
2022-08-16T05:41:05.903Z,23.07
2022-08-16T05:43:43.741Z,23.02
2022-08-16T05:46:30.526Z,23.36
2022-08-16T05:49:05.427Z,23.48
2022-08-16T05:51:38.451Z,23.48
2022-08-16T05:54:11.247Z,23.58
2022-08-16T05:56:39.228Z,23.69
2022-08-16T05:59:07.146Z,23.72
2022-08-16T06:01:38.227Z,23.49
2022-08-16T06:04:12.685Z,23.77
2022-08-16T06:06:43.410Z,23.66
2022-08-16T06:09:24.140Z,23.77
2022-08-16T06:11:50.959Z,23.88
2022-08-16T06:14:17.933Z,23.89
2022-08-16T06:16:44.601Z,23.81
2022-08-16T06:19:17.789Z,24.52
2022-08-16T06:21:44.475Z,24.02
2022-08-16T06:24:52.785Z,24.49
2022-08-16T06:26:58.452Z,24.41
2022-08-16T06:29:25.480Z,24.47
2022-08-16T06:31:53.333Z,24.46
2022-08-16T06:34:56.103Z,25.31
2022-08-16T06:37:07.409Z,25.49
2022-08-16T06:39:34.532Z,25.10
2022-08-16T06:42:18.288Z,25.23
2022-08-16T06:44:45.577Z,25.62
2022-08-16T06:47:17.122Z,25.83
2022-08-16T06:49:52.563Z,26.07
2022-08-16T06:52:57.251Z,26.20
2022-08-16T06:55:08.118Z,25.81
2022-08-16T06:57:39.941Z,25.93
2022-08-16T07:00:24.755Z,25.84
2022-08-16T07:02:53.625Z,25.81
2022-08-16T07:05:39.739Z,26.61
2022-08-16T07:08:10.556Z,26.70
2022-08-16T07:10:38.721Z,26.96
2022-08-16T07:13:11.823Z,27.63
2022-08-16T07:15:50.438Z,27.79
2022-08-16T07:18:21.213Z,27.94
2022-08-16T07:20:51.454Z,27.97
2022-08-16T07:23:18.329Z,28.14
2022-08-16T07:25:45.053Z,27.94
2022-08-16T07:28:20.952Z,28.40
2022-08-16T07:30:50.925Z,28.47
2022-08-16T07:33:52.395Z,29.13
2022-08-16T07:36:09.600Z,29.18
2022-08-16T07:38:36.741Z,29.55
2022-08-16T07:41:10.283Z,29.28
2022-08-16T07:43:40.907Z,29.13
2022-08-16T07:46:39.192Z,29.44
2022-08-16T07:48:56.362Z,28.76
2022-08-16T07:51:31.702Z,29.50
2022-08-16T07:54:02.432Z,29.61
2022-08-16T07:56:37.093Z,28.74
2022-08-16T07:59:05.170Z,28.56
2022-08-16T08:01:31.898Z,30.00
2022-08-16T08:03:58.610Z,30.13
2022-08-16T08:06:30.966Z,29.17
2022-08-16T08:08:59.404Z,30.05
2022-08-16T08:11:29.134Z,30.32
2022-08-16T08:13:57.605Z,30.80
2022-08-16T08:16:30.940Z,30.28
2022-08-16T08:19:01.156Z,29.78
2022-08-16T08:21:59.106Z,29.67
2022-08-16T08:24:15.714Z,31.04
2022-08-16T08:26:43.425Z,29.63
2022-08-16T08:29:12.062Z,29.13
2022-08-16T08:31:42.196Z,30.37
2022-08-16T08:34:08.787Z,29.68
2022-08-16T08:36:39.164Z,29.07
2022-08-16T08:39:13.260Z,30.18
2022-08-16T08:41:42.206Z,30.04
2022-08-16T08:44:29.044Z,30.46
2022-08-16T08:47:00.580Z,30.99
2022-08-16T08:49:45.972Z,30.03
2022-08-16T08:52:34.720Z,29.89
2022-08-16T08:55:09.209Z,30.43
2022-08-16T08:57:36.451Z,30.03
2022-08-16T09:00:07.887Z,30.19
2022-08-16T09:02:39.569Z,30.20
2022-08-16T09:05:14.858Z,30.60
2022-08-16T09:08:01.532Z,30.97
2022-08-16T09:10:30.673Z,31.11
2022-08-16T09:12:58.638Z,30.72
2022-08-16T09:15:26.421Z,30.70
2022-08-16T09:18:00.092Z,30.22
2022-08-16T09:20:30.003Z,30.07
2022-08-16T09:22:57.381Z,30.72
2022-08-16T09:25:26.303Z,29.93
2022-08-16T09:28:02.413Z,30.62
2022-08-16T09:30:43.221Z,30.66
2022-08-16T09:33:13.641Z,30.77
2022-08-16T09:35:42.350Z,30.42
2022-08-16T09:38:09.910Z,30.04
2022-08-16T09:40:42.791Z,29.68
2022-08-16T09:43:53.084Z,29.79
2022-08-16T09:46:33.513Z,30.29
2022-08-16T09:48:56.585Z,31.03
2022-08-16T09:51:26.203Z,30.54
2022-08-16T09:53:57.551Z,30.78
2022-08-16T09:56:31.525Z,31.14
2022-08-16T09:59:03.636Z,30.39
2022-08-16T10:01:33.350Z,30.66
2022-08-16T10:04:02.047Z,30.44
2022-08-16T10:06:33.398Z,30.81
2022-08-16T10:09:05.693Z,31.11
2022-08-16T10:11:54.370Z,31.13
2022-08-16T10:14:24.518Z,31.14
2022-08-16T10:17:02.750Z,31.22
2022-08-16T10:19:29.706Z,30.77
2022-08-16T10:21:58.724Z,31.47
2022-08-16T10:24:28.550Z,31.54
2022-08-16T10:27:19.839Z,31.67
2022-08-16T10:30:00.206Z,31.94
2022-08-16T10:32:30.558Z,31.91
2022-08-16T10:34:59.602Z,31.65
2022-08-16T10:37:35.950Z,32.23
2022-08-16T10:40:28.438Z,32.21
2022-08-16T10:42:55.990Z,31.14
2022-08-16T10:45:22.952Z,30.87
2022-08-16T10:48:02.697Z,30.87
2022-08-16T10:50:31.505Z,31.30
2022-08-16T10:52:59.372Z,31.28
2022-08-16T10:55:45.020Z,31.82
2022-08-16T10:58:16.920Z,30.71
2022-08-16T11:00:46.254Z,31.50
2022-08-16T11:06:00.997Z,30.66
2022-08-16T11:08:36.153Z,31.21
2022-08-16T11:11:10.546Z,30.88
2022-08-16T11:17:02.753Z,31.69
2022-08-16T11:19:15.471Z,32.28
2022-08-16T11:24:39.734Z,32.06
2022-08-16T11:27:21.182Z,31.24
2022-08-16T11:29:52.254Z,31.85
2022-08-16T11:32:22.761Z,31.80
2022-08-16T11:35:16.000Z,31.26
2022-08-16T11:38:47.285Z,31.90
2022-08-16T11:40:52.796Z,31.79
2022-08-16T11:43:23.363Z,31.80
2022-08-16T11:45:53.664Z,31.56
2022-08-16T11:48:21.958Z,31.11
2022-08-16T11:50:48.560Z,31.84
2022-08-16T11:53:17.043Z,32.55
2022-08-16T11:55:44.402Z,32.31
2022-08-16T11:58:11.631Z,32.60
2022-08-16T12:00:51.088Z,32.44
2022-08-16T12:03:19.195Z,32.07
2022-08-16T12:05:46.649Z,32.04
2022-08-16T12:08:18.573Z,31.27
2022-08-16T12:10:46.079Z,31.46
2022-08-16T12:13:14.190Z,32.47
2022-08-16T12:15:42.588Z,32.49
2022-08-16T12:18:10.233Z,32.45
2022-08-16T12:20:40.930Z,31.56
2022-08-16T12:23:09.311Z,31.38
2022-08-16T12:25:37.744Z,32.41
2022-08-16T12:28:06.374Z,32.61
2022-08-16T12:30:38.644Z,32.48
2022-08-16T12:33:07.733Z,32.09
2022-08-16T12:35:36.305Z,32.09
2022-08-16T12:38:10.359Z,32.56
2022-08-16T12:40:52.994Z,32.63
2022-08-16T12:43:23.543Z,32.30
2022-08-16T12:45:52.621Z,32.26
2022-08-16T12:48:39.956Z,32.12
2022-08-16T12:51:24.027Z,31.54
2022-08-16T12:53:52.949Z,31.91
2022-08-16T12:56:25.309Z,31.75
2022-08-16T12:58:53.435Z,32.53
2022-08-16T13:01:26.818Z,31.77
2022-08-16T13:04:11.447Z,32.08
2022-08-16T13:06:40.009Z,32.34
2022-08-16T13:09:20.508Z,31.04
2022-08-16T13:11:59.938Z,31.99
2022-08-16T13:14:31.218Z,31.80
2022-08-16T13:17:02.018Z,32.39
2022-08-16T13:19:44.191Z,32.31
2022-08-16T13:22:19.511Z,32.55
2022-08-16T13:24:48.053Z,31.96
2022-08-16T13:27:17.681Z,31.90
2022-08-16T13:29:45.055Z,32.74
2022-08-16T13:32:39.624Z,32.77
2022-08-16T13:35:04.874Z,32.39
2022-08-16T13:37:32.492Z,31.47
2022-08-16T13:40:05.297Z,31.46
2022-08-16T13:42:32.574Z,32.39
2022-08-16T13:45:08.957Z,32.07
2022-08-16T13:47:39.984Z,31.81
2022-08-16T13:50:09.697Z,31.31
2022-08-16T13:52:39.957Z,31.70
2022-08-16T13:55:17.817Z,32.49
2022-08-16T13:58:35.695Z,32.48
2022-08-16T14:00:31.482Z,32.44
2022-08-16T14:02:59.156Z,31.81
2022-08-16T14:05:26.905Z,32.81
2022-08-16T14:07:53.910Z,32.33
2022-08-16T14:10:21.195Z,32.19
2022-08-16T14:12:48.070Z,31.27
2022-08-16T14:15:16.049Z,32.59
2022-08-16T14:18:14.922Z,32.97
2022-08-16T14:20:29.720Z,32.13
2022-08-16T14:22:56.907Z,32.62
2022-08-16T14:25:24.538Z,32.31
2022-08-16T14:27:54.254Z,32.05
2022-08-16T14:30:22.138Z,32.73
2022-08-16T14:32:49.858Z,32.37
2022-08-16T14:35:29.289Z,31.30
2022-08-16T14:38:04.008Z,31.65
2022-08-16T14:40:31.992Z,32.83
2022-08-16T14:42:58.744Z,32.17
2022-08-16T14:45:33.879Z,31.79
2022-08-16T14:48:00.749Z,32.14
2022-08-16T14:50:27.839Z,32.15
2022-08-16T14:53:09.196Z,32.75
2022-08-16T14:55:37.788Z,32.36
2022-08-16T14:58:07.471Z,32.62
2022-08-16T15:00:47.711Z,32.72
2022-08-16T15:03:18.163Z,32.46
2022-08-16T15:05:44.698Z,32.34
2022-08-16T15:08:11.331Z,32.68
2022-08-16T15:10:42.854Z,32.54
2022-08-16T15:13:13.369Z,31.79
2022-08-16T15:15:43.320Z,32.54
2022-08-16T15:18:12.211Z,32.54
2022-08-16T15:20:41.095Z,32.97
2022-08-16T15:23:08.957Z,33.10
2022-08-16T15:25:42.992Z,32.33
2022-08-16T15:28:30.689Z,32.57
2022-08-16T15:31:00.947Z,32.72
2022-08-16T15:33:33.427Z,32.50
2022-08-16T15:36:00.402Z,31.55
2022-08-16T15:38:54.765Z,32.10
2022-08-16T15:41:47.728Z,32.26
2022-08-16T15:44:22.145Z,32.71
2022-08-16T15:46:54.741Z,32.55
2022-08-16T15:49:37.157Z,32.47
2022-08-16T15:52:29.426Z,32.19
2022-08-16T15:54:57.663Z,32.65
2022-08-16T15:57:25.735Z,32.99
2022-08-16T15:59:56.067Z,32.61
2022-08-16T16:02:31.762Z,32.52
2022-08-16T16:05:07.307Z,32.70
2022-08-16T16:07:37.316Z,32.92
2022-08-16T16:10:13.469Z,33.06
2022-08-16T16:12:51.607Z,32.52
2022-08-16T16:15:24.451Z,32.40
2022-08-16T16:17:52.995Z,32.93
2022-08-16T16:20:24.420Z,32.74
2022-08-16T16:22:57.677Z,31.54
2022-08-16T16:25:26.679Z,32.91
2022-08-16T16:27:55.795Z,31.83
2022-08-16T16:30:37.627Z,32.51
2022-08-16T16:33:21.434Z,31.54
2022-08-16T16:35:55.281Z,31.99
2022-08-16T16:38:26.937Z,32.51
2022-08-16T16:40:54.138Z,32.67
2022-08-16T16:43:25.466Z,32.36
2022-08-16T16:45:52.314Z,32.95
2022-08-16T16:48:18.846Z,32.61
2022-08-16T16:50:45.704Z,32.72
2022-08-16T16:53:17.417Z,32.51
2022-08-16T16:55:47.470Z,32.83
2022-08-16T16:58:43.469Z,32.55
2022-08-16T17:01:20.847Z,32.82
2022-08-16T17:04:13.134Z,32.80
2022-08-16T17:06:53.429Z,32.80
2022-08-16T17:09:23.964Z,32.25
2022-08-16T17:11:55.193Z,32.70
2022-08-16T17:14:32.668Z,32.63
2022-08-16T17:17:02.286Z,32.58
2022-08-16T17:19:31.650Z,32.55
2022-08-16T17:21:58.950Z,32.61
2022-08-16T17:24:31.191Z,32.41
2022-08-16T17:27:06.461Z,32.35
2022-08-16T17:29:33.310Z,31.99
2022-08-16T17:32:20.069Z,32.16
2022-08-16T17:34:50.509Z,32.42
2022-08-16T17:37:17.771Z,31.93
2022-08-16T17:39:59.265Z,31.76
2022-08-16T17:42:27.450Z,32.09
2022-08-16T17:44:54.601Z,31.95
2022-08-16T17:47:21.599Z,32.02
2022-08-16T17:49:48.073Z,32.27
2022-08-16T17:52:14.745Z,32.27
2022-08-16T17:54:41.365Z,32.16
2022-08-16T17:57:07.870Z,32.08
2022-08-16T17:59:38.359Z,32.10
2022-08-16T18:02:42.570Z,31.88
2022-08-16T18:04:55.532Z,31.99
2022-08-16T18:07:22.212Z,32.00
2022-08-16T18:09:48.794Z,31.86
2022-08-16T18:12:44.848Z,31.79
2022-08-16T18:15:09.766Z,31.60
2022-08-16T18:17:36.218Z,31.68
2022-08-16T18:20:08.008Z,31.63
2022-08-16T18:22:34.523Z,30.66
2022-08-16T18:25:01.045Z,30.84
2022-08-16T18:27:29.571Z,30.65
2022-08-16T18:29:56.126Z,31.01
2022-08-16T18:32:24.594Z,30.95
2022-08-16T18:34:52.739Z,30.79
2022-08-16T18:37:21.381Z,30.68
2022-08-16T18:39:48.001Z,30.65
2022-08-16T18:42:15.270Z,30.07
2022-08-16T18:44:43.644Z,29.88
2022-08-16T18:47:10.305Z,29.88
2022-08-16T18:49:37.143Z,30.07
2022-08-16T18:52:04.160Z,30.08
2022-08-16T18:54:32.507Z,29.97
2022-08-16T18:56:59.319Z,30.06
2022-08-16T18:59:29.265Z,29.91
2022-08-16T19:02:00.018Z,29.62
2022-08-16T19:04:56.290Z,29.42
2022-08-16T19:07:19.439Z,29.48
2022-08-16T19:09:46.106Z,29.18
2022-08-16T19:12:15.951Z,29.19
2022-08-16T19:14:44.144Z,29.13
2022-08-16T19:17:11.326Z,28.99
2022-08-16T19:19:37.941Z,29.18
2022-08-16T19:22:05.898Z,29.33
2022-08-16T19:24:32.621Z,29.10
2022-08-16T19:26:59.178Z,28.99
2022-08-16T19:29:28.404Z,28.92
2022-08-16T19:31:54.939Z,29.09
2022-08-16T19:34:21.389Z,29.13
2022-08-16T19:36:48.058Z,29.13
2022-08-16T19:39:16.348Z,28.97
2022-08-16T19:41:46.213Z,28.76
2022-08-16T19:44:19.855Z,28.80
2022-08-16T19:46:48.586Z,28.92
2022-08-16T19:49:16.439Z,28.82
2022-08-16T19:51:44.611Z,28.53
2022-08-16T19:54:11.072Z,28.56
2022-08-16T19:56:37.886Z,28.64
2022-08-16T19:59:22.028Z,28.57
2022-08-16T20:01:51.882Z,28.51
2022-08-16T20:04:19.789Z,28.54
2022-08-16T20:06:46.993Z,28.48
2022-08-16T20:09:15.062Z,28.36
2022-08-16T20:11:44.215Z,28.33
2022-08-16T20:14:11.724Z,28.31
2022-08-16T20:16:46.729Z,27.85
2022-08-16T20:19:13.259Z,27.68
2022-08-16T20:21:39.722Z,27.56
2022-08-16T20:24:32.932Z,27.63
2022-08-16T20:26:53.558Z,27.85
2022-08-16T20:29:20.058Z,27.58
2022-08-16T20:31:46.605Z,27.59
2022-08-16T20:34:15.636Z,27.16
2022-08-16T20:36:43.241Z,26.48
2022-08-16T20:39:13.309Z,26.44
2022-08-16T20:41:43.177Z,26.46
2022-08-16T20:44:11.090Z,27.03
2022-08-16T20:46:39.783Z,26.59
2022-08-16T20:49:09.249Z,27.28
2022-08-16T20:51:49.465Z,26.44
2022-08-16T20:54:18.116Z,27.10
2022-08-16T20:56:44.620Z,26.68
2022-08-16T20:59:11.093Z,26.56
2022-08-16T21:01:47.059Z,26.05
2022-08-16T21:04:19.069Z,26.88
2022-08-16T21:06:53.648Z,26.85
2022-08-16T21:09:26.664Z,26.57
2022-08-16T21:11:56.130Z,26.90
2022-08-16T21:14:23.331Z,26.81
2022-08-16T21:16:50.023Z,26.81
2022-08-16T21:19:16.866Z,26.74
2022-08-16T21:21:43.373Z,26.91
2022-08-16T21:24:09.930Z,26.87
2022-08-16T21:26:38.900Z,26.86
2022-08-16T21:29:06.640Z,26.69
2022-08-16T21:31:39.528Z,26.79
2022-08-16T21:34:06.419Z,26.78
2022-08-16T21:36:35.055Z,26.65
2022-08-16T21:39:06.983Z,26.65
2022-08-16T21:41:35.463Z,26.65
2022-08-16T21:44:02.069Z,26.57
2022-08-16T21:46:28.645Z,26.64
2022-08-16T21:48:55.115Z,26.52
2022-08-16T21:51:22.242Z,26.59
2022-08-16T21:53:48.727Z,26.52
2022-08-16T21:56:17.277Z,26.50
2022-08-16T21:58:45.555Z,26.48
2022-08-16T22:01:12.767Z,26.45
2022-08-16T22:03:39.256Z,26.41
2022-08-16T22:06:11.597Z,26.32
2022-08-16T22:08:39.512Z,26.23
2022-08-16T22:11:17.458Z,25.99
2022-08-16T22:13:49.286Z,26.12
2022-08-16T22:16:26.399Z,26.07
2022-08-16T22:18:52.947Z,26.11
2022-08-16T22:21:19.738Z,25.75
2022-08-16T22:23:46.295Z,25.33
2022-08-16T22:26:30.291Z,25.78
2022-08-16T22:29:00.372Z,25.83
2022-08-16T22:31:27.351Z,25.66
2022-08-16T22:33:53.939Z,25.79
2022-08-16T22:36:20.398Z,25.75
2022-08-16T22:38:56.069Z,25.87
2022-08-16T22:41:24.120Z,25.42
2022-08-16T22:43:50.632Z,25.68
2022-08-16T22:46:19.883Z,25.61
2022-08-16T22:48:49.927Z,25.64
2022-08-16T22:51:16.966Z,25.50
2022-08-16T22:53:43.412Z,25.20
2022-08-16T22:56:09.950Z,25.11
2022-08-16T22:58:37.341Z,25.33
2022-08-16T23:01:08.475Z,25.36
2022-08-16T23:03:35.179Z,25.42
2022-08-16T23:06:01.704Z,25.32
2022-08-16T23:08:39.094Z,25.23
2022-08-16T23:11:08.971Z,24.70
2022-08-16T23:13:35.435Z,25.24
2022-08-16T23:16:11.443Z,25.27
2022-08-16T23:18:39.466Z,25.30
2022-08-16T23:21:09.814Z,25.34
2022-08-16T23:23:37.567Z,25.25
2022-08-16T23:26:45.524Z,25.19
2022-08-16T23:28:51.741Z,25.21
2022-08-16T23:31:18.662Z,25.19
2022-08-16T23:33:45.879Z,25.26
2022-08-16T23:36:13.259Z,25.01
2022-08-16T23:38:40.127Z,25.06
2022-08-16T23:41:11.842Z,25.08
2022-08-16T23:43:44.312Z,25.02
2022-08-16T23:46:16.925Z,24.99
2022-08-16T23:50:01.794Z,24.98
2022-08-16T23:51:31.370Z,24.96
2022-08-16T23:53:57.913Z,24.96
2022-08-16T23:56:25.596Z,24.98
2022-08-16T23:58:54.549Z,24.85
